createdAt,value
2022-11-12T00:00:54.503Z,12.93
2022-11-12T00:03:21.983Z,13.33
2022-11-12T00:05:50.691Z,11.17
2022-11-12T00:08:18.187Z,13.50
2022-11-12T00:10:45.462Z,12.50
2022-11-12T00:13:14.211Z,13.77
2022-11-12T00:15:41.039Z,13.80
2022-11-12T00:18:08.026Z,13.23
2022-11-12T00:20:35.348Z,12.77
2022-11-12T00:23:02.330Z,13.63
2022-11-12T00:25:29.354Z,13.17
2022-11-12T00:28:02.654Z,13.07
2022-11-12T00:30:30.005Z,12.40
2022-11-12T00:32:57.048Z,12.57
2022-11-12T00:35:23.750Z,12.60
2022-11-12T00:37:55.254Z,12.23
2022-11-12T00:40:22.137Z,13.50
2022-11-12T00:42:51.162Z,13.10
2022-11-12T00:45:18.896Z,13.20
2022-11-12T00:47:45.855Z,13.77
2022-11-12T00:50:12.727Z,13.50
2022-11-12T00:52:39.588Z,13.50
2022-11-12T00:55:06.605Z,12.53
2022-11-12T00:57:33.382Z,13.50
2022-11-12T01:00:00.068Z,13.27
2022-11-12T01:02:26.809Z,12.97
2022-11-12T01:04:53.581Z,13.20
2022-11-12T01:07:20.441Z,13.97
2022-11-12T01:09:47.191Z,14.07
2022-11-12T01:12:13.954Z,13.60
2022-11-12T01:14:40.837Z,14.30
2022-11-12T01:17:07.659Z,13.77
2022-11-12T01:19:34.483Z,13.47
2022-11-12T01:22:01.221Z,13.33
2022-11-12T01:24:27.921Z,12.53
2022-11-12T01:26:54.667Z,13.40
2022-11-12T01:29:21.433Z,12.70
2022-11-12T01:31:48.152Z,14.00
2022-11-12T01:34:14.893Z,13.33
2022-11-12T01:36:42.956Z,13.43
2022-11-12T01:39:10.136Z,13.03
2022-11-12T01:41:39.358Z,13.43
2022-11-12T01:44:15.287Z,12.57
2022-11-12T01:46:57.057Z,12.60
2022-11-12T01:49:40.095Z,12.83
2022-11-12T01:52:38.842Z,12.43
2022-11-12T01:55:09.826Z,13.40
2022-11-12T01:58:05.193Z,12.93
2022-11-12T02:00:32.064Z,12.00
2022-11-12T02:03:00.827Z,12.10
2022-11-12T02:05:29.834Z,12.40
2022-11-12T02:07:58.734Z,12.13
2022-11-12T02:10:26.445Z,12.10
2022-11-12T02:13:12.892Z,12.73
2022-11-12T02:15:41.579Z,12.10
2022-11-12T02:18:09.083Z,11.40
2022-11-12T02:20:37.908Z,12.37
2022-11-12T02:23:07.100Z,12.57
2022-11-12T02:25:34.821Z,11.77
2022-11-12T02:28:04.938Z,12.47
2022-11-12T02:30:36.086Z,13.13
2022-11-12T02:33:03.935Z,11.43
2022-11-12T02:35:31.450Z,11.33
2022-11-12T02:37:58.702Z,11.50
2022-11-12T02:40:25.671Z,12.10
2022-11-12T02:42:52.426Z,12.53
2022-11-12T02:45:19.763Z,12.67
2022-11-12T02:47:46.926Z,12.30
2022-11-12T02:50:13.749Z,13.70
2022-11-12T02:52:40.471Z,13.10
2022-11-12T02:55:09.414Z,13.33
2022-11-12T02:57:37.540Z,12.60
2022-11-12T03:00:13.285Z,13.37
2022-11-12T03:02:42.818Z,13.17
2022-11-12T03:05:13.036Z,12.77
2022-11-12T03:07:39.984Z,11.97
2022-11-12T03:10:07.372Z,11.53
2022-11-12T03:12:34.242Z,11.87
2022-11-12T03:15:01.091Z,13.57
2022-11-12T03:17:27.856Z,13.23
2022-11-12T03:19:54.602Z,13.30
2022-11-12T03:22:21.352Z,12.20
2022-11-12T03:24:48.108Z,12.60
2022-11-12T03:27:15.148Z,11.83
2022-11-12T03:29:41.973Z,12.37
2022-11-12T03:32:08.752Z,11.73
2022-11-12T03:34:35.465Z,12.93
2022-11-12T03:37:03.091Z,11.70
2022-11-12T03:39:29.851Z,12.27
2022-11-12T03:41:56.675Z,13.13
2022-11-12T03:44:23.426Z,11.97
2022-11-12T03:46:50.074Z,12.77
2022-11-12T03:49:16.819Z,12.63
2022-11-12T03:51:43.547Z,12.13
2022-11-12T03:54:10.343Z,11.57
2022-11-12T03:56:37.069Z,11.73
2022-11-12T03:59:04.246Z,11.33
2022-11-12T04:01:31.762Z,11.47
2022-11-12T04:03:58.664Z,11.03
2022-11-12T04:06:44.081Z,11.23
2022-11-12T04:09:10.823Z,11.53
2022-11-12T04:11:37.508Z,12.40
2022-11-12T04:14:04.564Z,10.80
2022-11-12T04:16:49.886Z,10.33
2022-11-12T04:19:35.262Z,10.63
2022-11-12T04:22:04.974Z,10.00
2022-11-12T04:24:58.700Z,10.23
2022-11-12T04:27:26.724Z,10.43
2022-11-12T04:30:12.613Z,9.57
2022-11-12T04:32:54.637Z,10.87
2022-11-12T04:35:25.540Z,10.03
2022-11-12T04:37:52.731Z,10.00
2022-11-12T04:40:40.614Z,9.50
2022-11-12T04:43:28.938Z,9.80
2022-11-12T04:45:56.179Z,10.20
2022-11-12T04:48:25.616Z,9.87
2022-11-12T04:51:02.278Z,10.20
2022-11-12T04:53:30.031Z,9.47
2022-11-12T04:55:58.613Z,9.17
2022-11-12T04:58:25.738Z,9.13
2022-11-12T05:00:52.985Z,9.40
2022-11-12T05:03:19.827Z,9.13
2022-11-12T05:05:46.523Z,8.83
2022-11-12T05:08:13.273Z,8.33
2022-11-12T05:10:40.000Z,9.60
2022-11-12T05:13:06.725Z,8.93
2022-11-12T05:15:33.457Z,8.60
2022-11-12T05:18:00.246Z,8.70
2022-11-12T05:20:26.997Z,8.53
2022-11-12T05:23:06.050Z,8.20
2022-11-12T05:25:35.424Z,8.40
2022-11-12T05:28:02.131Z,9.70
2022-11-12T05:30:28.855Z,7.97
2022-11-12T05:32:55.560Z,7.70
2022-11-12T05:35:22.395Z,7.83
2022-11-12T05:37:49.057Z,7.40
2022-11-12T05:40:15.790Z,7.87
2022-11-12T05:42:42.538Z,7.93
2022-11-12T05:45:09.542Z,8.07
2022-11-12T05:47:36.238Z,7.50
2022-11-12T05:50:03.265Z,7.97
2022-11-12T05:52:29.945Z,8.03
2022-11-12T05:54:56.696Z,7.83
2022-11-12T05:57:23.378Z,7.17
2022-11-12T05:59:50.075Z,8.10
2022-11-12T06:02:16.874Z,7.97
2022-11-12T06:04:43.660Z,8.10
2022-11-12T06:07:10.359Z,7.93
2022-11-12T06:09:37.189Z,6.77
2022-11-12T06:12:06.805Z,7.50
2022-11-12T06:14:33.511Z,7.33
2022-11-12T06:17:00.240Z,7.67
2022-11-12T06:19:26.937Z,7.07
2022-11-12T06:21:53.661Z,7.63
2022-11-12T06:24:20.588Z,7.23
2022-11-12T06:26:47.330Z,7.13
2022-11-12T06:29:14.077Z,6.80
2022-11-12T06:31:40.815Z,7.70
2022-11-12T06:34:07.643Z,6.87
2022-11-12T06:36:35.152Z,6.97
2022-11-12T06:39:01.950Z,7.23
2022-11-12T06:41:28.713Z,7.67
2022-11-12T06:43:55.459Z,7.73
2022-11-12T06:46:22.200Z,7.90
2022-11-12T06:48:48.965Z,7.73
2022-11-12T06:51:20.779Z,8.00
2022-11-12T06:53:48.197Z,7.20
2022-11-12T06:56:15.741Z,7.53
2022-11-12T06:58:42.627Z,7.20
2022-11-12T07:01:12.052Z,6.83
2022-11-12T07:03:40.075Z,7.40
2022-11-12T07:06:12.206Z,7.73
2022-11-12T07:08:39.693Z,6.70
2022-11-12T07:11:07.178Z,6.80
2022-11-12T07:13:35.456Z,7.00
2022-11-12T07:16:02.967Z,7.90
2022-11-12T07:18:31.029Z,7.77
2022-11-12T07:21:02.762Z,7.67
2022-11-12T07:23:32.394Z,7.80
2022-11-12T07:26:04.869Z,7.57
2022-11-12T07:28:31.771Z,7.60
2022-11-12T07:31:00.907Z,6.63
2022-11-12T07:33:28.435Z,7.00
2022-11-12T07:36:00.316Z,7.13
2022-11-12T07:38:28.871Z,7.57
2022-11-12T07:41:00.369Z,7.90
2022-11-12T07:43:28.852Z,7.13
2022-11-12T07:45:59.126Z,6.40
2022-11-12T07:48:26.681Z,7.77
2022-11-12T07:50:58.906Z,7.50
2022-11-12T07:53:26.023Z,7.20
2022-11-12T07:56:01.073Z,7.77
2022-11-12T07:58:30.194Z,7.17
2022-11-12T08:00:57.111Z,7.67
2022-11-12T08:03:24.206Z,7.53
2022-11-12T08:05:50.980Z,7.83
2022-11-12T08:08:17.801Z,8.13
2022-11-12T08:10:44.563Z,7.50
2022-11-12T08:13:11.590Z,7.27
2022-11-12T08:15:38.370Z,7.33
2022-11-12T08:18:05.216Z,7.63
2022-11-12T08:20:32.005Z,7.73
2022-11-12T08:23:01.978Z,8.10
2022-11-12T08:25:28.888Z,7.23
2022-11-12T08:27:59.446Z,6.87
2022-11-12T08:30:27.555Z,7.83
2022-11-12T08:33:05.063Z,7.33
2022-11-12T08:35:33.777Z,8.13
2022-11-12T08:38:02.942Z,8.30
2022-11-12T08:40:31.374Z,10.00
2022-11-12T08:43:03.893Z,10.07
2022-11-12T08:45:33.105Z,10.80
2022-11-12T08:48:01.839Z,10.20
2022-11-12T08:50:29.279Z,11.67
2022-11-12T08:53:04.500Z,11.30
2022-11-12T08:55:33.402Z,10.33
2022-11-12T08:58:03.937Z,10.13
2022-11-12T09:00:44.395Z,10.90
2022-11-12T09:03:17.280Z,9.50
2022-11-12T09:05:44.132Z,10.63
2022-11-12T09:08:14.418Z,10.20
2022-11-12T09:10:41.462Z,10.70
2022-11-12T09:13:08.637Z,10.40
2022-11-12T09:15:38.309Z,10.00
2022-11-12T09:18:08.382Z,8.83
2022-11-12T09:20:35.381Z,8.10
2022-11-12T09:23:15.928Z,8.60
2022-11-12T09:25:43.116Z,8.37
2022-11-12T09:28:13.065Z,7.60
2022-11-12T09:30:43.504Z,8.47
2022-11-12T09:33:10.295Z,8.43
2022-11-12T09:35:37.067Z,6.53
2022-11-12T09:38:03.887Z,7.17
2022-11-12T09:40:51.494Z,7.50
2022-11-12T09:43:34.613Z,8.33
2022-11-12T09:46:32.080Z,6.77
2022-11-12T09:49:16.307Z,7.67
2022-11-12T09:51:49.594Z,7.17
2022-11-12T09:54:22.400Z,6.90
2022-11-12T09:56:50.373Z,6.97
2022-11-12T09:59:17.557Z,7.13
2022-11-12T10:01:53.807Z,7.13
2022-11-12T10:04:55.725Z,6.97
2022-11-12T10:07:41.375Z,7.57
2022-11-12T10:10:33.181Z,7.10
2022-11-12T10:13:34.968Z,7.10
2022-11-12T10:16:36.984Z,6.97
2022-11-12T10:19:14.961Z,6.50
2022-11-12T10:22:00.222Z,6.60
2022-11-12T10:24:34.218Z,6.90
2022-11-12T10:27:02.603Z,6.77
2022-11-12T10:29:47.618Z,6.57
2022-11-12T10:32:16.308Z,5.97
2022-11-12T10:34:43.149Z,6.27
2022-11-12T10:37:42.584Z,6.03
2022-11-12T10:40:21.889Z,6.53
2022-11-12T10:43:00.415Z,6.40
2022-11-12T10:45:27.637Z,6.03
2022-11-12T10:47:54.539Z,6.27
2022-11-12T10:50:41.545Z,6.20
2022-11-12T10:53:11.689Z,5.73
2022-11-12T10:55:58.150Z,5.80
2022-11-12T10:58:25.352Z,6.47
2022-11-12T11:01:01.815Z,7.10
2022-11-12T11:03:34.926Z,6.20
2022-11-12T11:06:27.864Z,5.60
2022-11-12T11:09:17.805Z,5.63
2022-11-12T11:11:52.392Z,6.03
2022-11-12T11:14:40.605Z,5.73
2022-11-12T11:17:18.365Z,5.53
2022-11-12T11:19:45.207Z,5.83
2022-11-12T11:22:28.612Z,6.53
2022-11-12T11:25:27.980Z,6.67
2022-11-12T11:28:19.224Z,6.93
2022-11-12T11:30:58.404Z,7.70
2022-11-12T11:33:52.235Z,7.73
2022-11-12T11:36:28.117Z,7.57
2022-11-12T11:39:02.898Z,7.20
2022-11-12T11:41:44.832Z,8.30
2022-11-12T11:44:30.630Z,8.00
2022-11-12T11:47:12.654Z,7.57
2022-11-12T11:49:39.352Z,7.67
2022-11-12T11:52:38.272Z,7.30
2022-11-12T11:55:14.698Z,7.47
2022-11-12T11:58:28.983Z,7.80
2022-11-12T12:01:12.082Z,7.40
2022-11-12T12:04:00.394Z,7.40
2022-11-12T12:06:30.333Z,7.80
2022-11-12T12:09:24.953Z,7.73
2022-11-12T12:12:05.617Z,8.27
2022-11-12T12:14:39.025Z,7.57
2022-11-12T12:17:27.815Z,7.80
2022-11-12T12:20:09.285Z,7.47
2022-11-12T12:22:46.820Z,7.40
2022-11-12T12:25:23.815Z,7.20
2022-11-12T12:28:21.341Z,8.43
2022-11-12T12:30:52.643Z,10.30
2022-11-12T12:33:30.474Z,9.67
2022-11-12T12:36:08.364Z,11.13
2022-11-12T12:38:59.997Z,11.17
2022-11-12T12:41:32.880Z,10.40
2022-11-12T12:44:05.343Z,10.03
2022-11-12T12:46:38.853Z,9.63
2022-11-12T12:49:07.489Z,8.33
2022-11-12T12:51:35.780Z,8.70
2022-11-12T12:54:02.624Z,8.23
2022-11-12T12:56:32.110Z,8.43
2022-11-12T12:59:03.806Z,9.13
2022-11-12T13:01:35.728Z,8.13
2022-11-12T13:04:08.817Z,9.00
2022-11-12T13:06:46.314Z,9.10
2022-11-12T13:09:13.161Z,8.27
2022-11-12T13:12:01.386Z,8.67
2022-11-12T13:14:37.115Z,8.63
2022-11-12T13:17:11.800Z,8.33
2022-11-12T13:19:53.626Z,8.80
2022-11-12T13:22:20.319Z,9.00
2022-11-12T13:25:05.567Z,9.13
2022-11-12T13:27:44.747Z,9.13
2022-11-12T13:30:14.306Z,8.40
2022-11-12T13:32:48.484Z,7.80
2022-11-12T13:35:20.861Z,8.23
2022-11-12T13:37:50.469Z,8.20
2022-11-12T13:40:37.478Z,8.00
2022-11-12T13:43:27.580Z,9.17
2022-11-12T13:46:00.571Z,8.63
2022-11-12T13:48:29.519Z,9.10
2022-11-12T13:51:01.572Z,9.50
2022-11-12T13:53:31.531Z,8.63
2022-11-12T13:55:58.410Z,9.87
2022-11-12T13:58:33.438Z,8.60
2022-11-12T14:01:02.313Z,8.33
2022-11-12T14:03:53.432Z,8.70
2022-11-12T14:06:28.741Z,8.77
2022-11-12T14:09:10.803Z,9.33
2022-11-12T14:11:52.106Z,9.73
2022-11-12T14:14:23.813Z,9.07
2022-11-12T14:16:55.795Z,8.73
2022-11-12T14:19:49.140Z,9.57
2022-11-12T14:22:18.720Z,9.70
2022-11-12T14:24:48.159Z,10.07
2022-11-12T14:27:30.370Z,8.97
2022-11-12T14:30:17.867Z,8.77
2022-11-12T14:32:46.779Z,9.60
2022-11-12T14:35:18.398Z,9.03
2022-11-12T14:37:51.580Z,9.97
2022-11-12T14:40:19.825Z,9.23
2022-11-12T14:42:46.783Z,9.77
2022-11-12T14:45:18.796Z,9.50
2022-11-12T14:47:47.966Z,9.67
2022-11-12T14:50:28.995Z,9.10
2022-11-12T14:53:08.275Z,9.73
2022-11-12T14:55:37.297Z,11.17
2022-11-12T14:58:04.896Z,10.67
2022-11-12T15:00:31.976Z,10.57
2022-11-12T15:03:01.944Z,11.13
2022-11-12T15:05:28.982Z,11.53
2022-11-12T15:08:05.144Z,11.67
2022-11-12T15:10:39.413Z,10.80
2022-11-12T15:13:12.570Z,11.10
2022-11-12T15:15:50.135Z,12.00
2022-11-12T15:18:24.206Z,10.73
2022-11-12T15:21:13.959Z,12.70
2022-11-12T15:23:52.655Z,11.73
2022-11-12T15:26:41.798Z,11.30
2022-11-12T15:29:11.663Z,11.63
2022-11-12T15:32:13.532Z,11.40
2022-11-12T15:34:40.762Z,11.57
2022-11-12T15:37:22.383Z,11.17
2022-11-12T15:39:57.309Z,12.63
2022-11-12T15:42:37.988Z,11.57
2022-11-12T15:45:10.177Z,11.17
2022-11-12T15:47:36.971Z,11.20
2022-11-12T15:50:18.246Z,11.87
2022-11-12T15:52:45.677Z,11.10
2022-11-12T15:55:13.285Z,10.90
2022-11-12T15:57:49.124Z,11.30
2022-11-12T16:00:19.835Z,11.43
2022-11-12T16:02:52.017Z,10.87
2022-11-12T16:05:19.341Z,11.37
2022-11-12T16:07:46.362Z,12.07
2022-11-12T16:10:15.014Z,10.67
2022-11-12T16:12:42.968Z,11.47
2022-11-12T16:15:14.973Z,11.67
2022-11-12T16:17:42.158Z,12.67
2022-11-12T16:20:18.549Z,11.87
2022-11-12T16:22:45.368Z,12.40
2022-11-12T16:25:12.114Z,11.33
2022-11-12T16:27:39.835Z,11.87
2022-11-12T16:30:14.488Z,11.47
2022-11-12T16:32:41.337Z,11.80
2022-11-12T16:35:08.504Z,11.30
2022-11-12T16:37:38.226Z,12.30
2022-11-12T16:40:14.321Z,12.03
2022-11-12T16:42:45.877Z,12.87
2022-11-12T16:45:17.769Z,12.73
2022-11-12T16:47:50.144Z,12.97
2022-11-12T16:50:21.608Z,12.47
2022-11-12T16:52:49.102Z,12.97
2022-11-12T16:55:16.360Z,14.07
2022-11-12T16:57:43.402Z,12.67
2022-11-12T17:00:15.397Z,12.60
2022-11-12T17:02:45.360Z,14.00
2022-11-12T17:05:15.051Z,13.10
2022-11-12T17:07:42.070Z,13.90
2022-11-12T17:10:09.216Z,13.73
2022-11-12T17:12:35.897Z,13.10
2022-11-12T17:15:02.709Z,14.70
2022-11-12T17:17:29.484Z,13.63
2022-11-12T17:19:56.338Z,13.73
2022-11-12T17:22:24.007Z,14.17
2022-11-12T17:24:50.749Z,14.37
2022-11-12T17:27:17.960Z,14.57
2022-11-12T17:29:44.743Z,14.13
2022-11-12T17:32:11.489Z,13.43
2022-11-12T17:34:38.263Z,14.83
2022-11-12T17:37:05.114Z,14.23
2022-11-12T17:39:31.939Z,13.83
2022-11-12T17:41:58.691Z,14.17
2022-11-12T17:44:25.536Z,15.17
2022-11-12T17:46:52.301Z,13.03
2022-11-12T17:49:19.212Z,14.17
2022-11-12T17:51:45.986Z,14.53
2022-11-12T17:54:12.727Z,14.17
2022-11-12T17:56:39.528Z,14.57
2022-11-12T17:59:06.262Z,14.73
2022-11-12T18:01:34.501Z,13.23
2022-11-12T18:04:01.706Z,12.63
2022-11-12T18:06:34.139Z,13.33
2022-11-12T18:09:12.595Z,13.67
2022-11-12T18:11:51.004Z,13.93
2022-11-12T18:14:17.705Z,15.37
2022-11-12T18:16:45.032Z,16.40
2022-11-12T18:19:12.813Z,16.57
2022-11-12T18:21:40.401Z,16.83
2022-11-12T18:24:12.158Z,17.60
2022-11-12T18:26:39.339Z,15.83
2022-11-12T18:29:07.354Z,16.97
2022-11-12T18:31:34.179Z,15.57
2022-11-12T18:34:00.913Z,15.20
2022-11-12T18:36:28.498Z,14.00
2022-11-12T18:38:55.647Z,12.90
2022-11-12T18:41:25.884Z,12.93
2022-11-12T18:43:56.843Z,13.67
2022-11-12T18:46:23.837Z,12.23
2022-11-12T18:48:50.847Z,11.93
2022-11-12T18:51:19.228Z,13.20
2022-11-12T18:53:46.225Z,15.67
2022-11-12T18:56:18.095Z,16.97
2022-11-12T18:58:45.290Z,22.90
2022-11-12T19:01:17.833Z,105.30
2022-11-12T19:03:44.903Z,150.17
2022-11-12T19:06:13.810Z,31.83
2022-11-12T19:08:41.542Z,24.03
2022-11-12T19:11:11.065Z,20.43
2022-11-12T19:13:38.654Z,47.90
2022-11-12T19:16:08.346Z,38.17
2022-11-12T19:18:35.238Z,72.17
2022-11-12T19:21:28.286Z,59.73
2022-11-12T19:23:56.975Z,21.50
2022-11-12T19:26:24.175Z,15.13
2022-11-12T19:28:51.067Z,12.83
2022-11-12T19:31:23.563Z,12.33
2022-11-12T19:33:51.330Z,28.30
2022-11-12T19:36:21.902Z,30.93
2022-11-12T19:38:56.699Z,15.50
2022-11-12T19:41:24.226Z,14.20
2022-11-12T19:43:51.827Z,13.60
2022-11-12T19:46:19.248Z,13.43
2022-11-12T19:48:46.138Z,24.93
2022-11-12T19:51:13.936Z,34.30
2022-11-12T19:53:44.539Z,24.47
2022-11-12T19:56:14.060Z,23.50
2022-11-12T19:58:45.181Z,17.77
2022-11-12T20:01:14.284Z,16.40
2022-11-12T20:03:41.520Z,17.47
2022-11-12T20:06:11.022Z,19.13
2022-11-12T20:08:38.399Z,20.00
2022-11-12T20:11:05.626Z,18.27
2022-11-12T20:13:32.910Z,15.17
2022-11-12T20:15:59.620Z,16.27
2022-11-12T20:18:26.782Z,17.77
2022-11-12T20:20:56.725Z,16.07
2022-11-12T20:23:24.587Z,14.07
2022-11-12T20:25:52.618Z,12.73
2022-11-12T20:28:19.566Z,12.23
2022-11-12T20:30:46.355Z,12.30
2022-11-12T20:33:14.161Z,12.27
2022-11-12T20:35:40.973Z,12.53
2022-11-12T20:38:08.042Z,12.13
2022-11-12T20:40:34.901Z,12.57
2022-11-12T20:43:01.621Z,13.23
2022-11-12T20:45:28.529Z,13.70
2022-11-12T20:47:56.558Z,11.87
2022-11-12T20:50:23.813Z,12.20
2022-11-12T20:52:50.750Z,11.67
2022-11-12T20:55:18.221Z,11.47
2022-11-12T20:57:45.024Z,10.93
2022-11-12T21:00:14.649Z,10.93
2022-11-12T21:02:42.785Z,11.10
2022-11-12T21:05:09.571Z,11.40
2022-11-12T21:07:36.429Z,12.27
2022-11-12T21:10:04.065Z,11.93
2022-11-12T21:12:31.244Z,9.57
2022-11-12T21:14:58.065Z,10.23
2022-11-12T21:17:24.875Z,10.57
2022-11-12T21:19:51.751Z,9.97
2022-11-12T21:22:18.743Z,10.77
2022-11-12T21:24:45.540Z,11.57
2022-11-12T21:27:12.313Z,10.30
2022-11-12T21:29:39.118Z,10.27
2022-11-12T21:32:06.372Z,11.23
2022-11-12T21:34:33.239Z,10.80
2022-11-12T21:37:01.081Z,10.33
2022-11-12T21:39:27.882Z,10.00
2022-11-12T21:41:54.982Z,9.83
2022-11-12T21:44:21.754Z,10.13
2022-11-12T21:46:48.557Z,10.20
2022-11-12T21:49:15.238Z,11.20
2022-11-12T21:51:41.981Z,10.87
2022-11-12T21:54:15.143Z,10.07
2022-11-12T21:56:42.091Z,10.37
2022-11-12T21:59:08.893Z,9.77
2022-11-12T22:01:35.709Z,9.90
2022-11-12T22:04:06.486Z,10.07
2022-11-12T22:06:36.679Z,9.37
2022-11-12T22:09:05.104Z,9.40
2022-11-12T22:11:31.866Z,10.03
2022-11-12T22:13:58.634Z,10.47
2022-11-12T22:16:27.415Z,8.90
2022-11-12T22:18:55.349Z,10.43
2022-11-12T22:21:34.080Z,10.27
2022-11-12T22:24:03.978Z,11.17
2022-11-12T22:26:31.076Z,10.53
2022-11-12T22:28:59.202Z,9.97
2022-11-12T22:31:31.776Z,9.73
2022-11-12T22:34:00.694Z,9.87
2022-11-12T22:36:29.925Z,9.50
2022-11-12T22:38:57.088Z,17.53
2022-11-12T22:41:26.289Z,16.07
2022-11-12T22:43:56.143Z,13.07
2022-11-12T22:46:25.208Z,12.87
2022-11-12T22:48:52.272Z,12.40
2022-11-12T22:51:22.061Z,10.97
2022-11-12T22:53:53.972Z,10.47
2022-11-12T22:56:21.090Z,9.90
2022-11-12T22:58:48.214Z,9.53
2022-11-12T23:01:26.933Z,8.97
2022-11-12T23:04:00.805Z,11.33
2022-11-12T23:06:28.847Z,13.10
2022-11-12T23:08:57.249Z,14.27
2022-11-12T23:11:26.196Z,12.13
2022-11-12T23:13:54.720Z,10.67
2022-11-12T23:16:29.995Z,11.50
2022-11-12T23:18:57.378Z,10.20
2022-11-12T23:21:26.974Z,11.23
2022-11-12T23:23:53.801Z,11.03
2022-11-12T23:26:23.077Z,9.83
2022-11-12T23:28:50.908Z,10.37
2022-11-12T23:31:23.104Z,9.60
2022-11-12T23:33:52.145Z,10.50
2022-11-12T23:36:19.647Z,9.60
2022-11-12T23:38:46.965Z,11.13
2022-11-12T23:41:17.015Z,11.43
2022-11-12T23:43:44.218Z,9.10
2022-11-12T23:46:11.823Z,8.13
2022-11-12T23:48:38.711Z,8.90
2022-11-12T23:51:12.495Z,9.50
2022-11-12T23:53:40.051Z,9.10
2022-11-12T23:56:09.486Z,9.20
2022-11-12T23:58:37.361Z,8.07
